sensor_id;sensor_type;location;lat;lon;timestamp;temperature;humidity
38239;DHT22;24035;48.900;9.188;2022-09-17T00:02:04;9.70;72.30
38239;DHT22;24035;48.900;9.188;2022-09-17T00:04:31;9.60;1.00
38239;DHT22;24035;48.900;9.188;2022-09-17T00:06:57;9.60;8.50
38239;DHT22;24035;48.900;9.188;2022-09-17T00:09:23;9.70;99.90
38239;DHT22;24035;48.900;9.188;2022-09-17T00:11:48;9.70;41.40
38239;DHT22;24035;48.900;9.188;2022-09-17T00:14:16;9.80;20.60
38239;DHT22;24035;48.900;9.188;2022-09-17T00:16:44;9.90;1.00
38239;DHT22;24035;48.900;9.188;2022-09-17T00:19:19;9.90;1.00
38239;DHT22;24035;48.900;9.188;2022-09-17T00:21:45;9.90;1.00
38239;DHT22;24035;48.900;9.188;2022-09-17T00:24:13;10.00;1.00
38239;DHT22;24035;48.900;9.188;2022-09-17T00:26:39;10.10;1.00
38239;DHT22;24035;48.900;9.188;2022-09-17T00:29:05;10.00;99.90
38239;DHT22;24035;48.900;9.188;2022-09-17T00:31:32;10.10;99.90
38239;DHT22;24035;48.900;9.188;2022-09-17T00:33:58;10.20;99.90
38239;DHT22;24035;48.900;9.188;2022-09-17T00:36:24;10.20;94.00
38239;DHT22;24035;48.900;9.188;2022-09-17T00:38:52;10.20;19.70
38239;DHT22;24035;48.900;9.188;2022-09-17T00:41:18;10.20;99.90
38239;DHT22;24035;48.900;9.188;2022-09-17T00:43:47;10.20;99.90
38239;DHT22;24035;48.900;9.188;2022-09-17T00:46:46;10.10;99.90
38239;DHT22;24035;48.900;9.188;2022-09-17T00:49:17;10.10;99.90
38239;DHT22;24035;48.900;9.188;2022-09-17T00:52:06;10.00;99.90
38239;DHT22;24035;48.900;9.188;2022-09-17T00:54:35;9.90;1.00
38239;DHT22;24035;48.900;9.188;2022-09-17T00:57:02;9.90;1.00
38239;DHT22;24035;48.900;9.188;2022-09-17T00:59:28;9.80;1.00
38239;DHT22;24035;48.900;9.188;2022-09-17T01:01:54;9.80;1.00
38239;DHT22;24035;48.900;9.188;2022-09-17T01:04:22;9.70;1.00
38239;DHT22;24035;48.900;9.188;2022-09-17T01:09:28;9.60;99.90
38239;DHT22;24035;48.900;9.188;2022-09-17T01:12:03;9.60;99.90
38239;DHT22;24035;48.900;9.188;2022-09-17T01:14:37;9.60;1.00
38239;DHT22;24035;48.900;9.188;2022-09-17T01:22:35;9.40;1.00
38239;DHT22;24035;48.900;9.188;2022-09-17T01:25:22;9.30;1.00
38239;DHT22;24035;48.900;9.188;2022-09-17T01:33:14;9.40;30.60
38239;DHT22;24035;48.900;9.188;2022-09-17T01:35:52;9.30;90.20
38239;DHT22;24035;48.900;9.188;2022-09-17T01:38:33;9.30;99.90
38239;DHT22;24035;48.900;9.188;2022-09-17T01:44:34;9.30;99.90
38239;DHT22;24035;48.900;9.188;2022-09-17T01:49:37;9.40;1.00
38239;DHT22;24035;48.900;9.188;2022-09-17T01:52:04;9.50;1.00
38239;DHT22;24035;48.900;9.188;2022-09-17T01:54:45;9.50;99.90
38239;DHT22;24035;48.900;9.188;2022-09-17T01:57:37;9.50;87.20
38239;DHT22;24035;48.900;9.188;2022-09-17T02:00:10;9.40;99.90
38239;DHT22;24035;48.900;9.188;2022-09-17T02:02:42;9.40;99.90
38239;DHT22;24035;48.900;9.188;2022-09-17T02:05:20;9.40;99.90
38239;DHT22;24035;48.900;9.188;2022-09-17T02:08:08;9.40;99.90
38239;DHT22;24035;48.900;9.188;2022-09-17T02:10:41;9.40;99.90
38239;DHT22;24035;48.900;9.188;2022-09-17T02:15:46;9.40;99.90
38239;DHT22;24035;48.900;9.188;2022-09-17T02:21:21;9.50;99.90
38239;DHT22;24035;48.900;9.188;2022-09-17T02:24:03;9.50;1.00
38239;DHT22;24035;48.900;9.188;2022-09-17T02:26:31;9.50;1.00
38239;DHT22;24035;48.900;9.188;2022-09-17T02:29:06;9.50;1.00
38239;DHT22;24035;48.900;9.188;2022-09-17T02:31:33;9.50;99.90
38239;DHT22;24035;48.900;9.188;2022-09-17T02:34:01;9.50;99.90
38239;DHT22;24035;48.900;9.188;2022-09-17T02:36:29;9.50;99.90
38239;DHT22;24035;48.900;9.188;2022-09-17T02:39:01;9.50;99.90
38239;DHT22;24035;48.900;9.188;2022-09-17T02:50:56;9.50;99.90
38239;DHT22;24035;48.900;9.188;2022-09-17T02:58:37;9.60;1.00
38239;DHT22;24035;48.900;9.188;2022-09-17T03:01:21;9.60;1.00
38239;DHT22;24035;48.900;9.188;2022-09-17T03:03:49;9.50;55.90
38239;DHT22;24035;48.900;9.188;2022-09-17T03:06:16;9.40;99.90
38239;DHT22;24035;48.900;9.188;2022-09-17T03:08:42;9.30;99.90
38239;DHT22;24035;48.900;9.188;2022-09-17T03:11:09;9.20;99.90
38239;DHT22;24035;48.900;9.188;2022-09-17T03:13:37;9.20;1.00
38239;DHT22;24035;48.900;9.188;2022-09-17T03:16:03;9.10;1.00
38239;DHT22;24035;48.900;9.188;2022-09-17T03:18:30;9.10;1.00
38239;DHT22;24035;48.900;9.188;2022-09-17T03:20:56;9.10;99.90
38239;DHT22;24035;48.900;9.188;2022-09-17T03:23:21;9.10;99.80
38239;DHT22;24035;48.900;9.188;2022-09-17T03:25:47;9.00;99.90
38239;DHT22;24035;48.900;9.188;2022-09-17T03:28:16;9.10;99.90
38239;DHT22;24035;48.900;9.188;2022-09-17T03:30:43;9.00;99.90
38239;DHT22;24035;48.900;9.188;2022-09-17T03:33:09;9.00;99.90
38239;DHT22;24035;48.900;9.188;2022-09-17T03:35:35;9.00;99.90
38239;DHT22;24035;48.900;9.188;2022-09-17T03:38:01;9.00;99.90
38239;DHT22;24035;48.900;9.188;2022-09-17T03:40:27;9.00;1.00
38239;DHT22;24035;48.900;9.188;2022-09-17T03:42:53;9.00;1.00
38239;DHT22;24035;48.900;9.188;2022-09-17T03:45:19;8.90;1.00
38239;DHT22;24035;48.900;9.188;2022-09-17T03:47:45;8.90;1.00
38239;DHT22;24035;48.900;9.188;2022-09-17T03:50:10;8.90;1.00
38239;DHT22;24035;48.900;9.188;2022-09-17T03:52:36;8.90;1.00
38239;DHT22;24035;48.900;9.188;2022-09-17T03:55:02;8.90;1.00
38239;DHT22;24035;48.900;9.188;2022-09-17T03:57:28;8.80;1.00
38239;DHT22;24035;48.900;9.188;2022-09-17T03:59:54;8.90;1.00
38239;DHT22;24035;48.900;9.188;2022-09-17T04:02:20;8.80;1.00
38239;DHT22;24035;48.900;9.188;2022-09-17T04:04:45;8.90;1.00
38239;DHT22;24035;48.900;9.188;2022-09-17T04:07:11;8.90;1.00
38239;DHT22;24035;48.900;9.188;2022-09-17T04:09:37;9.00;1.00
38239;DHT22;24035;48.900;9.188;2022-09-17T04:12:03;9.00;1.00
38239;DHT22;24035;48.900;9.188;2022-09-17T04:14:28;9.00;99.90
38239;DHT22;24035;48.900;9.188;2022-09-17T04:16:54;9.10;1.00
38239;DHT22;24035;48.900;9.188;2022-09-17T04:19:20;9.20;99.90
38239;DHT22;24035;48.900;9.188;2022-09-17T04:21:45;9.30;1.00
38239;DHT22;24035;48.900;9.188;2022-09-17T04:24:11;9.40;1.00
38239;DHT22;24035;48.900;9.188;2022-09-17T04:26:37;9.40;1.00
38239;DHT22;24035;48.900;9.188;2022-09-17T04:29:02;9.50;99.90
38239;DHT22;24035;48.900;9.188;2022-09-17T04:31:28;9.40;99.90
38239;DHT22;24035;48.900;9.188;2022-09-17T04:33:55;9.40;99.90
38239;DHT22;24035;48.900;9.188;2022-09-17T04:36:21;9.40;99.90
38239;DHT22;24035;48.900;9.188;2022-09-17T04:38:49;9.40;99.90
38239;DHT22;24035;48.900;9.188;2022-09-17T04:41:15;9.50;99.90
38239;DHT22;24035;48.900;9.188;2022-09-17T04:43:41;9.50;99.90
38239;DHT22;24035;48.900;9.188;2022-09-17T04:46:06;9.50;99.90
38239;DHT22;24035;48.900;9.188;2022-09-17T04:48:32;9.50;1.00
38239;DHT22;24035;48.900;9.188;2022-09-17T04:50:58;9.50;1.00
38239;DHT22;24035;48.900;9.188;2022-09-17T04:53:23;9.60;1.00
38239;DHT22;24035;48.900;9.188;2022-09-17T04:55:49;9.60;1.00
38239;DHT22;24035;48.900;9.188;2022-09-17T04:58:15;9.60;1.00
38239;DHT22;24035;48.900;9.188;2022-09-17T05:00:40;9.60;1.00
38239;DHT22;24035;48.900;9.188;2022-09-17T05:03:07;9.50;1.00
38239;DHT22;24035;48.900;9.188;2022-09-17T05:05:33;9.50;1.00
38239;DHT22;24035;48.900;9.188;2022-09-17T05:07:58;9.50;1.00
38239;DHT22;24035;48.900;9.188;2022-09-17T05:10:24;9.40;1.00
38239;DHT22;24035;48.900;9.188;2022-09-17T05:12:52;9.30;1.00
38239;DHT22;24035;48.900;9.188;2022-09-17T05:15:19;9.20;97.20
38239;DHT22;24035;48.900;9.188;2022-09-17T05:17:45;9.10;37.20
38239;DHT22;24035;48.900;9.188;2022-09-17T05:20:12;9.10;99.90
38239;DHT22;24035;48.900;9.188;2022-09-17T05:22:43;9.10;99.90
38239;DHT22;24035;48.900;9.188;2022-09-17T05:25:10;9.00;99.90
38239;DHT22;24035;48.900;9.188;2022-09-17T05:27:37;9.00;1.00
38239;DHT22;24035;48.900;9.188;2022-09-17T05:30:10;9.00;1.00
38239;DHT22;24035;48.900;9.188;2022-09-17T05:32:42;9.10;1.00
38239;DHT22;24035;48.900;9.188;2022-09-17T05:35:11;9.00;1.00
38239;DHT22;24035;48.900;9.188;2022-09-17T05:38:00;9.00;1.00
38239;DHT22;24035;48.900;9.188;2022-09-17T05:40:31;9.10;99.90
38239;DHT22;24035;48.900;9.188;2022-09-17T05:42:59;9.20;99.90
38239;DHT22;24035;48.900;9.188;2022-09-17T05:45:25;9.30;99.90
38239;DHT22;24035;48.900;9.188;2022-09-17T05:47:55;9.40;22.80
38239;DHT22;24035;48.900;9.188;2022-09-17T05:50:21;9.50;1.00
38239;DHT22;24035;48.900;9.188;2022-09-17T05:52:48;9.50;1.00
38239;DHT22;24035;48.900;9.188;2022-09-17T05:55:14;9.60;1.00
38239;DHT22;24035;48.900;9.188;2022-09-17T05:57:40;9.70;99.90
38239;DHT22;24035;48.900;9.188;2022-09-17T06:00:06;9.80;99.90
38239;DHT22;24035;48.900;9.188;2022-09-17T06:02:32;9.90;1.00
38239;DHT22;24035;48.900;9.188;2022-09-17T06:05:00;9.80;1.00
38239;DHT22;24035;48.900;9.188;2022-09-17T06:07:31;9.80;1.00
38239;DHT22;24035;48.900;9.188;2022-09-17T06:10:05;9.80;1.00
38239;DHT22;24035;48.900;9.188;2022-09-17T06:12:32;9.80;1.00
38239;DHT22;24035;48.900;9.188;2022-09-17T06:15:03;9.80;1.00
38239;DHT22;24035;48.900;9.188;2022-09-17T06:17:35;9.80;1.00
38239;DHT22;24035;48.900;9.188;2022-09-17T06:20:12;9.90;1.00
38239;DHT22;24035;48.900;9.188;2022-09-17T06:22:38;10.00;1.00
38239;DHT22;24035;48.900;9.188;2022-09-17T06:25:04;10.10;99.90
38239;DHT22;24035;48.900;9.188;2022-09-17T06:27:31;10.10;99.90
38239;DHT22;24035;48.900;9.188;2022-09-17T06:29:58;10.10;99.90
38239;DHT22;24035;48.900;9.188;2022-09-17T06:32:24;10.20;99.90
38239;DHT22;24035;48.900;9.188;2022-09-17T06:34:50;10.20;99.90
38239;DHT22;24035;48.900;9.188;2022-09-17T06:37:16;10.30;1.00
38239;DHT22;24035;48.900;9.188;2022-09-17T06:39:41;10.40;1.00
38239;DHT22;24035;48.900;9.188;2022-09-17T06:42:07;10.40;1.00
38239;DHT22;24035;48.900;9.188;2022-09-17T06:44:33;10.40;1.00
38239;DHT22;24035;48.900;9.188;2022-09-17T06:46:59;10.30;1.00
38239;DHT22;24035;48.900;9.188;2022-09-17T06:49:25;10.30;1.00
38239;DHT22;24035;48.900;9.188;2022-09-17T06:51:51;10.30;1.00
38239;DHT22;24035;48.900;9.188;2022-09-17T06:54:17;10.30;1.00
38239;DHT22;24035;48.900;9.188;2022-09-17T06:56:45;10.40;1.00
38239;DHT22;24035;48.900;9.188;2022-09-17T06:59:12;10.30;1.00
38239;DHT22;24035;48.900;9.188;2022-09-17T07:01:37;10.40;1.00
38239;DHT22;24035;48.900;9.188;2022-09-17T07:04:03;10.40;1.00
38239;DHT22;24035;48.900;9.188;2022-09-17T07:06:29;10.20;1.00
38239;DHT22;24035;48.900;9.188;2022-09-17T07:08:54;10.10;99.90
38239;DHT22;24035;48.900;9.188;2022-09-17T07:11:20;10.00;1.00
38239;DHT22;24035;48.900;9.188;2022-09-17T07:13:46;9.80;99.90
38239;DHT22;24035;48.900;9.188;2022-09-17T07:16:12;9.70;1.00
38239;DHT22;24035;48.900;9.188;2022-09-17T07:18:37;9.60;99.90
38239;DHT22;24035;48.900;9.188;2022-09-17T07:21:05;9.40;1.00
38239;DHT22;24035;48.900;9.188;2022-09-17T07:23:33;9.40;99.90
38239;DHT22;24035;48.900;9.188;2022-09-17T07:26:04;9.30;99.90
38239;DHT22;24035;48.900;9.188;2022-09-17T07:28:30;9.20;1.00
38239;DHT22;24035;48.900;9.188;2022-09-17T07:30:56;9.20;66.80
38239;DHT22;24035;48.900;9.188;2022-09-17T07:33:25;9.20;99.90
38239;DHT22;24035;48.900;9.188;2022-09-17T07:35:53;9.30;1.00
38239;DHT22;24035;48.900;9.188;2022-09-17T07:38:19;9.40;1.00
38239;DHT22;24035;48.900;9.188;2022-09-17T07:40:59;9.50;1.00
38239;DHT22;24035;48.900;9.188;2022-09-17T07:43:26;9.50;99.90
38239;DHT22;24035;48.900;9.188;2022-09-17T07:45:53;9.40;1.00
38239;DHT22;24035;48.900;9.188;2022-09-17T07:48:21;9.50;1.00
38239;DHT22;24035;48.900;9.188;2022-09-17T07:50:47;9.40;1.00
38239;DHT22;24035;48.900;9.188;2022-09-17T07:53:13;9.40;1.00
38239;DHT22;24035;48.900;9.188;2022-09-17T07:55:39;9.40;1.00
38239;DHT22;24035;48.900;9.188;2022-09-17T07:58:05;9.60;17.90
38239;DHT22;24035;48.900;9.188;2022-09-17T08:00:31;9.80;99.90
38239;DHT22;24035;48.900;9.188;2022-09-17T08:02:56;10.10;1.00
38239;DHT22;24035;48.900;9.188;2022-09-17T08:05:23;10.20;99.90
38239;DHT22;24035;48.900;9.188;2022-09-17T08:07:54;10.30;1.00
38239;DHT22;24035;48.900;9.188;2022-09-17T08:10:21;10.50;1.00
38239;DHT22;24035;48.900;9.188;2022-09-17T08:12:54;10.50;1.00
38239;DHT22;24035;48.900;9.188;2022-09-17T08:15:21;10.60;1.00
38239;DHT22;24035;48.900;9.188;2022-09-17T08:17:47;10.60;1.00
38239;DHT22;24035;48.900;9.188;2022-09-17T08:20:14;10.60;1.00
38239;DHT22;24035;48.900;9.188;2022-09-17T08:22:41;10.70;1.00
38239;DHT22;24035;48.900;9.188;2022-09-17T08:25:07;10.90;1.00
38239;DHT22;24035;48.900;9.188;2022-09-17T08:27:34;10.90;1.00
38239;DHT22;24035;48.900;9.188;2022-09-17T08:30:00;10.90;99.90
38239;DHT22;24035;48.900;9.188;2022-09-17T08:32:28;11.00;84.40
38239;DHT22;24035;48.900;9.188;2022-09-17T08:34:54;10.90;1.00
38239;DHT22;24035;48.900;9.188;2022-09-17T08:37:20;11.00;99.90
38239;DHT22;24035;48.900;9.188;2022-09-17T08:39:46;10.90;1.00
38239;DHT22;24035;48.900;9.188;2022-09-17T08:42:21;11.00;1.00
38239;DHT22;24035;48.900;9.188;2022-09-17T08:44:49;11.30;1.00
38239;DHT22;24035;48.900;9.188;2022-09-17T08:49:58;11.60;99.90
38239;DHT22;24035;48.900;9.188;2022-09-17T08:55:06;11.90;1.00
38239;DHT22;24035;48.900;9.188;2022-09-17T08:57:51;11.80;1.00
38239;DHT22;24035;48.900;9.188;2022-09-17T09:00:21;11.60;1.00
38239;DHT22;24035;48.900;9.188;2022-09-17T09:05:47;11.40;92.40
38239;DHT22;24035;48.900;9.188;2022-09-17T09:08:41;11.30;1.00
38239;DHT22;24035;48.900;9.188;2022-09-17T09:11:14;11.20;72.80
38239;DHT22;24035;48.900;9.188;2022-09-17T09:13:51;11.20;1.00
38239;DHT22;24035;48.900;9.188;2022-09-17T09:16:28;11.30;1.00
38239;DHT22;24035;48.900;9.188;2022-09-17T09:19:00;11.50;1.00
38239;DHT22;24035;48.900;9.188;2022-09-17T09:21:38;11.70;1.00
38239;DHT22;24035;48.900;9.188;2022-09-17T09:24:22;12.00;1.00
38239;DHT22;24035;48.900;9.188;2022-09-17T09:27:14;12.20;1.00
38239;DHT22;24035;48.900;9.188;2022-09-17T09:30:09;12.00;99.90
38239;DHT22;24035;48.900;9.188;2022-09-17T09:33:12;11.80;52.80
38239;DHT22;24035;48.900;9.188;2022-09-17T09:35:43;11.80;99.90
38239;DHT22;24035;48.900;9.188;2022-09-17T09:38:29;12.00;99.90
38239;DHT22;24035;48.900;9.188;2022-09-17T09:41:11;12.10;64.50
38239;DHT22;24035;48.900;9.188;2022-09-17T09:43:46;12.10;99.90
38239;DHT22;24035;48.900;9.188;2022-09-17T09:57:18;12.80;1.00
38239;DHT22;24035;48.900;9.188;2022-09-17T09:59:49;13.10;1.00
38239;DHT22;24035;48.900;9.188;2022-09-17T10:02:18;13.20;99.90
38239;DHT22;24035;48.900;9.188;2022-09-17T10:04:47;13.20;1.00
38239;DHT22;24035;48.900;9.188;2022-09-17T10:07:13;13.20;99.90
38239;DHT22;24035;48.900;9.188;2022-09-17T10:09:44;13.40;99.90
38239;DHT22;24035;48.900;9.188;2022-09-17T10:14:44;13.60;99.90
38239;DHT22;24035;48.900;9.188;2022-09-17T10:19:43;13.70;99.90
38239;DHT22;24035;48.900;9.188;2022-09-17T10:22:33;13.70;99.90
38239;DHT22;24035;48.900;9.188;2022-09-17T10:25:00;13.80;99.90
38239;DHT22;24035;48.900;9.188;2022-09-17T10:27:27;13.90;99.90
38239;DHT22;24035;48.900;9.188;2022-09-17T10:30:21;13.90;47.20
38239;DHT22;24035;48.900;9.188;2022-09-17T10:35:39;14.00;1.00
38239;DHT22;24035;48.900;9.188;2022-09-17T10:38:24;14.00;1.00
38239;DHT22;24035;48.900;9.188;2022-09-17T10:40:50;14.10;1.00
38239;DHT22;24035;48.900;9.188;2022-09-17T10:43:20;14.30;1.00
38239;DHT22;24035;48.900;9.188;2022-09-17T10:45:56;14.10;1.00
38239;DHT22;24035;48.900;9.188;2022-09-17T10:48:22;14.20;1.00
38239;DHT22;24035;48.900;9.188;2022-09-17T10:50:51;14.50;1.00
38239;DHT22;24035;48.900;9.188;2022-09-17T10:53:18;14.60;1.00
38239;DHT22;24035;48.900;9.188;2022-09-17T10:55:57;14.40;1.00
38239;DHT22;24035;48.900;9.188;2022-09-17T10:58:53;14.30;1.00
38239;DHT22;24035;48.900;9.188;2022-09-17T11:01:43;14.20;1.00
38239;DHT22;24035;48.900;9.188;2022-09-17T11:07:18;14.30;1.00
38239;DHT22;24035;48.900;9.188;2022-09-17T11:10:12;14.70;1.00
38239;DHT22;24035;48.900;9.188;2022-09-17T11:18:55;14.80;1.00
38239;DHT22;24035;48.900;9.188;2022-09-17T11:21:34;14.80;1.00
38239;DHT22;24035;48.900;9.188;2022-09-17T11:27:27;14.70;1.00
38239;DHT22;24035;48.900;9.188;2022-09-17T11:30:13;14.80;1.00
38239;DHT22;24035;48.900;9.188;2022-09-17T11:32:56;14.30;1.00
38239;DHT22;24035;48.900;9.188;2022-09-17T11:35:28;13.60;1.00
38239;DHT22;24035;48.900;9.188;2022-09-17T11:38:09;13.40;1.00
38239;DHT22;24035;48.900;9.188;2022-09-17T11:40:39;13.50;1.00
38239;DHT22;24035;48.900;9.188;2022-09-17T11:43:29;13.60;1.00
38239;DHT22;24035;48.900;9.188;2022-09-17T11:46:21;13.60;1.00
38239;DHT22;24035;48.900;9.188;2022-09-17T11:49:04;13.70;1.00
38239;DHT22;24035;48.900;9.188;2022-09-17T11:51:40;13.80;1.00
38239;DHT22;24035;48.900;9.188;2022-09-17T11:54:36;13.90;1.00
38239;DHT22;24035;48.900;9.188;2022-09-17T11:57:32;13.90;1.00
38239;DHT22;24035;48.900;9.188;2022-09-17T12:00:17;13.50;1.00
38239;DHT22;24035;48.900;9.188;2022-09-17T12:03:12;13.00;99.90
38239;DHT22;24035;48.900;9.188;2022-09-17T12:05:51;12.80;1.00
38239;DHT22;24035;48.900;9.188;2022-09-17T12:08:21;12.40;99.90
38239;DHT22;24035;48.900;9.188;2022-09-17T12:11:09;12.40;1.00
38239;DHT22;24035;48.900;9.188;2022-09-17T12:13:44;12.50;99.90
38239;DHT22;24035;48.900;9.188;2022-09-17T12:21:53;12.80;1.00
38239;DHT22;24035;48.900;9.188;2022-09-17T12:28:11;12.20;99.90
38239;DHT22;24035;48.900;9.188;2022-09-17T12:30:54;12.20;1.00
38239;DHT22;24035;48.900;9.188;2022-09-17T12:33:27;12.30;1.00
38239;DHT22;24035;48.900;9.188;2022-09-17T12:45:11;13.00;1.00
38239;DHT22;24035;48.900;9.188;2022-09-17T12:53:42;12.80;1.00
38239;DHT22;24035;48.900;9.188;2022-09-17T13:18:11;13.40;99.90
38239;DHT22;24035;48.900;9.188;2022-09-17T13:21:05;13.60;99.90
38239;DHT22;24035;48.900;9.188;2022-09-17T13:26:03;13.60;99.90
38239;DHT22;24035;48.900;9.188;2022-09-17T13:28:43;13.70;99.90
38239;DHT22;24035;48.900;9.188;2022-09-17T13:31:09;13.60;99.90
38239;DHT22;24035;48.900;9.188;2022-09-17T13:33:56;13.40;56.30
38239;DHT22;24035;48.900;9.188;2022-09-17T13:39:04;13.20;96.00
38239;DHT22;24035;48.900;9.188;2022-09-17T13:41:34;13.20;99.90
38239;DHT22;24035;48.900;9.188;2022-09-17T13:44:04;13.20;99.90
38239;DHT22;24035;48.900;9.188;2022-09-17T13:46:32;13.40;99.90
38239;DHT22;24035;48.900;9.188;2022-09-17T13:49:02;13.60;99.90
38239;DHT22;24035;48.900;9.188;2022-09-17T13:54:06;13.60;99.90
38239;DHT22;24035;48.900;9.188;2022-09-17T13:59:19;13.40;99.90
38239;DHT22;24035;48.900;9.188;2022-09-17T14:07:29;13.20;99.90
38239;DHT22;24035;48.900;9.188;2022-09-17T14:15:33;13.10;99.90
38239;DHT22;24035;48.900;9.188;2022-09-17T14:18:01;13.10;99.90
38239;DHT22;24035;48.900;9.188;2022-09-17T14:20:33;13.10;99.90
38239;DHT22;24035;48.900;9.188;2022-09-17T14:23:02;13.20;99.90
38239;DHT22;24035;48.900;9.188;2022-09-17T14:25:43;13.20;99.90
38239;DHT22;24035;48.900;9.188;2022-09-17T14:29:20;13.20;99.90
38239;DHT22;24035;48.900;9.188;2022-09-17T14:31:30;13.30;99.90
38239;DHT22;24035;48.900;9.188;2022-09-17T14:34:04;13.30;1.00
38239;DHT22;24035;48.900;9.188;2022-09-17T14:36:35;13.30;1.00
38239;DHT22;24035;48.900;9.188;2022-09-17T14:39:04;13.30;1.00
38239;DHT22;24035;48.900;9.188;2022-09-17T14:41:39;13.40;1.00
38239;DHT22;24035;48.900;9.188;2022-09-17T14:44:17;13.40;1.00
38239;DHT22;24035;48.900;9.188;2022-09-17T14:46:52;13.60;1.00
38239;DHT22;24035;48.900;9.188;2022-09-17T14:49:21;13.80;1.00
38239;DHT22;24035;48.900;9.188;2022-09-17T14:52:30;13.90;1.00
38239;DHT22;24035;48.900;9.188;2022-09-17T14:57:57;14.00;1.00
38239;DHT22;24035;48.900;9.188;2022-09-17T15:00:37;14.00;1.00
38239;DHT22;24035;48.900;9.188;2022-09-17T15:03:03;14.00;1.00
38239;DHT22;24035;48.900;9.188;2022-09-17T15:05:35;14.00;1.00
38239;DHT22;24035;48.900;9.188;2022-09-17T15:08:17;14.00;1.00
38239;DHT22;24035;48.900;9.188;2022-09-17T15:10:47;14.00;1.00
38239;DHT22;24035;48.900;9.188;2022-09-17T15:13:19;13.90;1.00
38239;DHT22;24035;48.900;9.188;2022-09-17T15:16:03;13.80;1.00
38239;DHT22;24035;48.900;9.188;2022-09-17T15:21:02;13.80;1.00
38239;DHT22;24035;48.900;9.188;2022-09-17T15:23:30;13.70;1.00
38239;DHT22;24035;48.900;9.188;2022-09-17T15:25:58;13.60;1.00
38239;DHT22;24035;48.900;9.188;2022-09-17T15:28:42;13.60;1.00
38239;DHT22;24035;48.900;9.188;2022-09-17T15:31:18;13.70;1.00
38239;DHT22;24035;48.900;9.188;2022-09-17T15:33:45;13.90;1.00
38239;DHT22;24035;48.900;9.188;2022-09-17T15:36:19;14.00;1.00
38239;DHT22;24035;48.900;9.188;2022-09-17T15:38:46;14.10;1.00
38239;DHT22;24035;48.900;9.188;2022-09-17T15:41:22;14.20;1.00
38239;DHT22;24035;48.900;9.188;2022-09-17T15:43:51;14.20;1.00
38239;DHT22;24035;48.900;9.188;2022-09-17T15:46:29;14.00;1.00
38239;DHT22;24035;48.900;9.188;2022-09-17T15:49:00;13.90;1.00
38239;DHT22;24035;48.900;9.188;2022-09-17T15:51:35;13.80;1.00
38239;DHT22;24035;48.900;9.188;2022-09-17T15:54:03;13.60;1.00
38239;DHT22;24035;48.900;9.188;2022-09-17T15:56:32;13.50;1.00
38239;DHT22;24035;48.900;9.188;2022-09-17T15:58:59;13.50;1.00
38239;DHT22;24035;48.900;9.188;2022-09-17T16:12:03;13.50;1.00
38239;DHT22;24035;48.900;9.188;2022-09-17T16:14:31;13.50;1.00
38239;DHT22;24035;48.900;9.188;2022-09-17T16:17:25;13.50;1.00
38239;DHT22;24035;48.900;9.188;2022-09-17T16:19:55;13.60;1.00
38239;DHT22;24035;48.900;9.188;2022-09-17T16:22:22;13.60;1.00
38239;DHT22;24035;48.900;9.188;2022-09-17T16:24:48;13.60;1.00
38239;DHT22;24035;48.900;9.188;2022-09-17T16:27:23;13.60;1.00
38239;DHT22;24035;48.900;9.188;2022-09-17T16:29:51;13.70;1.00
38239;DHT22;24035;48.900;9.188;2022-09-17T16:32:20;13.80;1.00
38239;DHT22;24035;48.900;9.188;2022-09-17T16:34:46;13.70;1.00
38239;DHT22;24035;48.900;9.188;2022-09-17T16:37:12;13.70;1.00
38239;DHT22;24035;48.900;9.188;2022-09-17T16:39:41;13.60;1.00
38239;DHT22;24035;48.900;9.188;2022-09-17T16:42:12;13.60;1.00
38239;DHT22;24035;48.900;9.188;2022-09-17T16:44:44;13.60;1.00
38239;DHT22;24035;48.900;9.188;2022-09-17T16:47:13;13.50;1.00
38239;DHT22;24035;48.900;9.188;2022-09-17T16:49:39;13.40;1.00
38239;DHT22;24035;48.900;9.188;2022-09-17T16:52:04;13.30;1.00
38239;DHT22;24035;48.900;9.188;2022-09-17T16:54:30;13.20;1.00
38239;DHT22;24035;48.900;9.188;2022-09-17T16:56:59;13.10;1.00
38239;DHT22;24035;48.900;9.188;2022-09-17T16:59:25;13.00;1.00
38239;DHT22;24035;48.900;9.188;2022-09-17T17:01:51;12.90;1.00
38239;DHT22;24035;48.900;9.188;2022-09-17T17:04:17;12.90;1.00
38239;DHT22;24035;48.900;9.188;2022-09-17T17:06:47;12.90;1.00
38239;DHT22;24035;48.900;9.188;2022-09-17T17:09:13;12.90;1.00
38239;DHT22;24035;48.900;9.188;2022-09-17T17:11:42;12.90;36.30
38239;DHT22;24035;48.900;9.188;2022-09-17T17:14:08;12.70;99.90
38239;DHT22;24035;48.900;9.188;2022-09-17T17:16:34;12.10;90.30
38239;DHT22;24035;48.900;9.188;2022-09-17T17:18:59;11.50;1.00
38239;DHT22;24035;48.900;9.188;2022-09-17T17:21:26;11.00;99.90
38239;DHT22;24035;48.900;9.188;2022-09-17T17:23:55;10.60;99.90
38239;DHT22;24035;48.900;9.188;2022-09-17T17:26:24;10.40;86.90
38239;DHT22;24035;48.900;9.188;2022-09-17T17:28:52;10.40;1.00
38239;DHT22;24035;48.900;9.188;2022-09-17T17:31:21;10.30;99.90
38239;DHT22;24035;48.900;9.188;2022-09-17T17:33:47;10.20;1.00
38239;DHT22;24035;48.900;9.188;2022-09-17T17:36:12;10.20;12.50
38239;DHT22;24035;48.900;9.188;2022-09-17T17:38:38;10.20;1.00
38239;DHT22;24035;48.900;9.188;2022-09-17T17:41:08;10.30;8.40
38239;DHT22;24035;48.900;9.188;2022-09-17T17:43:40;10.30;99.90
38239;DHT22;24035;48.900;9.188;2022-09-17T17:46:10;10.30;52.00
38239;DHT22;24035;48.900;9.188;2022-09-17T17:48:36;10.30;1.00
38239;DHT22;24035;48.900;9.188;2022-09-17T17:51:07;10.30;1.00
38239;DHT22;24035;48.900;9.188;2022-09-17T17:53:34;10.30;1.00
38239;DHT22;24035;48.900;9.188;2022-09-17T17:56:02;10.40;1.00
38239;DHT22;24035;48.900;9.188;2022-09-17T17:58:30;10.40;1.00
38239;DHT22;24035;48.900;9.188;2022-09-17T18:00:56;10.40;99.90
38239;DHT22;24035;48.900;9.188;2022-09-17T18:03:23;10.40;99.90
38239;DHT22;24035;48.900;9.188;2022-09-17T18:05:54;10.40;99.90
38239;DHT22;24035;48.900;9.188;2022-09-17T18:08:23;10.40;99.90
38239;DHT22;24035;48.900;9.188;2022-09-17T18:10:54;10.40;99.90
38239;DHT22;24035;48.900;9.188;2022-09-17T18:13:21;10.50;99.90
38239;DHT22;24035;48.900;9.188;2022-09-17T18:15:55;10.50;99.90
38239;DHT22;24035;48.900;9.188;2022-09-17T18:18:23;10.60;1.00
38239;DHT22;24035;48.900;9.188;2022-09-17T18:20:50;10.50;1.00
38239;DHT22;24035;48.900;9.188;2022-09-17T18:23:18;10.50;1.00
38239;DHT22;24035;48.900;9.188;2022-09-17T18:25:54;10.50;1.00
38239;DHT22;24035;48.900;9.188;2022-09-17T18:28:21;10.50;1.00
38239;DHT22;24035;48.900;9.188;2022-09-17T18:30:47;10.50;1.00
38239;DHT22;24035;48.900;9.188;2022-09-17T18:33:18;10.50;91.50
38239;DHT22;24035;48.900;9.188;2022-09-17T18:35:45;10.50;36.20
38239;DHT22;24035;48.900;9.188;2022-09-17T18:38:11;10.50;99.90
38239;DHT22;24035;48.900;9.188;2022-09-17T18:40:37;10.40;92.10
38239;DHT22;24035;48.900;9.188;2022-09-17T18:43:02;10.40;99.90
38239;DHT22;24035;48.900;9.188;2022-09-17T18:45:28;10.50;99.90
38239;DHT22;24035;48.900;9.188;2022-09-17T18:47:54;10.40;99.90
38239;DHT22;24035;48.900;9.188;2022-09-17T18:50:20;10.40;99.90
38239;DHT22;24035;48.900;9.188;2022-09-17T18:52:46;10.40;99.90